createdAt,value
2017-07-05T00:00:26.869Z,1016.99
2017-07-05T00:01:26.877Z,1016.98
2017-07-05T00:02:26.934Z,1017.04
2017-07-05T00:03:26.974Z,1016.98
2017-07-05T00:04:26.980Z,1016.99
2017-07-05T00:05:27.038Z,1016.98
2017-07-05T00:06:27.071Z,1016.97
2017-07-05T00:07:27.103Z,1016.94
2017-07-05T00:08:27.112Z,1016.92
2017-07-05T00:09:27.170Z,1016.9
2017-07-05T00:10:27.210Z,1016.96
2017-07-05T00:11:27.242Z,1016.95
2017-07-05T00:12:27.279Z,1016.96
2017-07-05T00:13:27.303Z,1016.95
2017-07-05T00:14:27.338Z,1016.97
2017-07-05T00:15:27.368Z,1016.97
2017-07-05T00:16:27.399Z,1016.98
2017-07-05T00:17:27.409Z,1016.96
2017-07-05T00:18:27.471Z,1016.97
2017-07-05T00:19:27.475Z,1017.01
2017-07-05T00:20:27.515Z,1017.03
2017-07-05T00:21:27.550Z,1017.03
2017-07-05T00:22:27.603Z,1017.1
2017-07-05T00:23:27.606Z,1017.05
2017-07-05T00:24:27.669Z,1017.03
2017-07-05T00:25:27.678Z,1016.98
2017-07-05T00:26:27.736Z,1016.97
2017-07-05T00:27:27.750Z,1016.92
2017-07-05T00:28:27.781Z,1016.96
2017-07-05T00:29:27.823Z,1016.94
2017-07-05T00:30:27.870Z,1016.99
2017-07-05T00:31:27.905Z,1016.97
2017-07-05T00:32:27.939Z,1016.96
2017-07-05T00:33:27.974Z,1016.98
2017-07-05T00:34:28.006Z,1017
2017-07-05T00:35:28.040Z,1016.99
2017-07-05T00:36:28.474Z,1016.95
2017-07-05T00:37:28.104Z,1016.95
2017-07-05T00:38:28.118Z,1016.92
2017-07-05T00:39:28.173Z,1016.9
2017-07-05T00:40:28.183Z,1016.87
2017-07-05T00:41:28.239Z,1016.89
2017-07-05T00:42:28.249Z,1016.82
2017-07-05T00:43:28.304Z,1016.92
2017-07-05T00:44:28.314Z,1016.83
2017-07-05T00:45:28.374Z,1016.84
2017-07-05T00:46:28.380Z,1016.83
2017-07-05T00:47:28.412Z,1016.84
2017-07-05T00:48:28.449Z,1016.85
2017-07-05T00:49:28.506Z,1016.81
2017-07-05T00:50:28.517Z,1016.84
2017-07-05T00:51:28.551Z,1016.79
2017-07-05T00:52:28.605Z,1016.78
2017-07-05T00:53:28.617Z,1016.75
2017-07-05T00:54:28.651Z,1016.73
2017-07-05T00:55:28.705Z,1016.69
2017-07-05T00:56:28.716Z,1016.65
2017-07-05T00:57:28.774Z,1016.62
2017-07-05T00:58:28.780Z,1016.59
2017-07-05T00:59:28.815Z,1016.63
2017-07-05T01:00:28.873Z,1016.62
2017-07-05T01:01:28.883Z,1016.68
2017-07-05T01:02:28.917Z,1016.6
2017-07-05T01:03:28.949Z,1016.58
2017-07-05T01:04:29.013Z,1016.55
2017-07-05T01:05:29.041Z,1016.53
2017-07-05T01:06:29.047Z,1016.5
2017-07-05T01:07:29.104Z,1016.48
2017-07-05T01:08:29.141Z,1016.47
2017-07-05T01:09:29.172Z,1016.46
2017-07-05T01:10:29.178Z,1016.49
2017-07-05T01:11:29.242Z,1016.47
2017-07-05T01:12:29.272Z,1016.49
2017-07-05T01:13:29.280Z,1016.51
2017-07-05T01:14:29.340Z,1016.51
2017-07-05T01:15:29.374Z,1016.47
2017-07-05T01:16:29.409Z,1016.5
2017-07-05T01:17:29.440Z,1016.48
2017-07-05T01:18:29.446Z,1016.5
2017-07-05T01:19:29.507Z,1016.52
2017-07-05T01:20:29.545Z,1016.47
2017-07-05T01:21:29.544Z,1016.45
2017-07-05T01:22:29.580Z,1016.5
2017-07-05T01:23:29.641Z,1016.56
2017-07-05T01:24:29.650Z,1016.49
2017-07-05T01:25:29.682Z,1016.44
2017-07-05T01:26:29.713Z,1016.49
2017-07-05T01:27:29.748Z,1016.5
2017-07-05T01:28:29.808Z,1016.56
2017-07-05T01:29:29.819Z,1016.56
2017-07-05T01:30:29.846Z,1016.57
2017-07-05T01:31:29.907Z,1016.58
2017-07-05T01:32:29.914Z,1016.58
2017-07-05T01:33:29.944Z,1016.54
2017-07-05T01:34:29.983Z,1016.61
2017-07-05T01:35:30.014Z,1016.57
2017-07-05T01:36:30.047Z,1016.58
2017-07-05T01:37:30.104Z,1016.64
2017-07-05T01:38:30.142Z,1016.62
2017-07-05T01:39:30.174Z,1016.58
2017-07-05T01:40:30.177Z,1016.6
2017-07-05T01:41:30.211Z,1016.53
2017-07-05T01:42:30.275Z,1016.54
2017-07-05T01:43:30.309Z,1016.49
2017-07-05T01:44:30.343Z,1016.49
2017-07-05T01:45:30.352Z,1016.47
2017-07-05T01:46:30.406Z,1016.43
2017-07-05T01:47:30.441Z,1016.5
2017-07-05T01:48:30.471Z,1016.53
2017-07-05T01:49:30.484Z,1016.53
2017-07-05T01:50:30.539Z,1016.53
2017-07-05T01:51:30.576Z,1016.53
2017-07-05T01:52:30.605Z,1016.51
2017-07-05T01:53:30.620Z,1016.55
2017-07-05T01:54:30.673Z,1016.5
2017-07-05T01:55:30.680Z,1016.55
2017-07-05T01:56:30.716Z,1016.56
2017-07-05T01:57:30.774Z,1016.49
2017-07-05T01:58:30.808Z,1016.49
2017-07-05T01:59:30.840Z,1016.48
2017-07-05T02:00:30.847Z,1016.51
2017-07-05T02:01:30.883Z,1016.5
2017-07-05T02:02:30.918Z,1016.49
2017-07-05T02:03:30.976Z,1016.49
2017-07-05T02:04:30.982Z,1016.46
2017-07-05T02:05:31.041Z,1016.48
2017-07-05T02:06:31.073Z,1016.48
2017-07-05T02:07:31.104Z,1016.4
2017-07-05T02:08:31.107Z,1016.41
2017-07-05T02:09:31.172Z,1016.35
2017-07-05T02:10:31.192Z,1016.4
2017-07-05T02:11:31.239Z,1016.39
2017-07-05T02:12:31.255Z,1016.43
2017-07-05T02:13:31.306Z,1016.43
2017-07-05T02:14:31.342Z,1016.38
2017-07-05T02:15:31.373Z,1016.38
2017-07-05T02:16:31.408Z,1016.3
2017-07-05T02:17:31.439Z,1016.32
2017-07-05T02:18:31.477Z,1016.34
2017-07-05T02:19:31.481Z,1016.34
2017-07-05T02:20:31.515Z,1016.3
2017-07-05T02:21:31.580Z,1016.31
2017-07-05T02:22:31.608Z,1016.3
2017-07-05T02:23:31.612Z,1016.28
2017-07-05T02:24:31.673Z,1016.28
2017-07-05T02:25:31.705Z,1016.24
2017-07-05T02:26:31.740Z,1016.22
2017-07-05T02:27:31.748Z,1016.16
2017-07-05T02:28:31.804Z,1016.26
2017-07-05T02:29:31.840Z,1016.19
2017-07-05T02:30:31.873Z,1016.19
2017-07-05T02:31:31.881Z,1016.21
2017-07-05T02:32:31.922Z,1016.21
2017-07-05T02:33:31.975Z,1016.23
2017-07-05T02:34:31.974Z,1016.21
2017-07-05T02:35:32.007Z,1016.17
2017-07-05T02:36:32.072Z,1016.22
2017-07-05T02:37:32.072Z,1016.22
2017-07-05T02:38:32.138Z,1016.27
2017-07-05T02:39:32.148Z,1016.27
2017-07-05T02:40:32.177Z,1016.22
2017-07-05T02:41:32.237Z,1016.19
2017-07-05T02:42:32.267Z,1016.17
2017-07-05T02:43:32.279Z,1016.23
2017-07-05T02:44:32.336Z,1016.21
2017-07-05T02:45:32.372Z,1016.24
2017-07-05T02:46:32.374Z,1016.24
2017-07-05T02:47:32.411Z,1016.2
2017-07-05T02:48:32.445Z,1016.25
2017-07-05T02:49:32.478Z,1016.24
2017-07-05T02:50:32.516Z,1016.22
2017-07-05T02:51:32.568Z,1016.25
2017-07-05T02:52:32.577Z,1016.22
2017-07-05T02:53:32.635Z,1016.22
2017-07-05T02:54:32.642Z,1016.19
2017-07-05T02:55:32.684Z,1016.16
2017-07-05T02:56:32.734Z,1016.15
2017-07-05T02:57:32.769Z,1016.15
2017-07-05T02:58:32.801Z,1016.14
2017-07-05T02:59:32.809Z,1016.13
2017-07-05T03:00:32.844Z,1016.12
2017-07-05T03:01:32.902Z,1016.09
2017-07-05T03:02:32.934Z,1016.02
2017-07-05T03:03:32.968Z,1016
2017-07-05T03:04:33.002Z,1015.99
2017-07-05T03:05:33.034Z,1016.01
2017-07-05T03:06:33.067Z,1015.98
2017-07-05T03:07:33.099Z,1016.02
2017-07-05T03:08:33.136Z,1016.09
2017-07-05T03:09:33.162Z,1016.04
2017-07-05T03:10:33.174Z,1016.15
2017-07-05T03:11:33.218Z,1016.14
2017-07-05T03:12:33.266Z,1016.16
2017-07-05T03:13:33.298Z,1016.18
2017-07-05T03:14:33.330Z,1016.19
2017-07-05T03:15:33.343Z,1016.17
2017-07-05T03:16:33.401Z,1016.19
2017-07-05T03:17:33.403Z,1016.18
2017-07-05T03:18:33.436Z,1016.15
2017-07-05T03:19:33.474Z,1016.16
2017-07-05T03:20:33.527Z,1016.14
2017-07-05T03:21:33.539Z,1016.17
2017-07-05T03:22:33.596Z,1016.2
2017-07-05T03:23:33.615Z,1016.19
2017-07-05T03:24:33.642Z,1016.16
2017-07-05T03:25:33.695Z,1016.17
2017-07-05T03:26:33.710Z,1016.15
2017-07-05T03:27:33.764Z,1016.13
2017-07-05T03:28:33.798Z,1016.16
2017-07-05T03:29:33.805Z,1016.15
2017-07-05T03:30:33.839Z,1016.1
2017-07-05T03:31:33.899Z,1016.13
2017-07-05T03:32:33.908Z,1016.12
2017-07-05T03:33:33.959Z,1016.04
2017-07-05T03:34:33.997Z,1016.08
2017-07-05T03:35:34.011Z,1016.06
2017-07-05T03:36:34.035Z,1015.99
2017-07-05T03:37:34.068Z,1015.98
2017-07-05T03:38:34.130Z,1016
2017-07-05T03:39:34.162Z,1016.04
2017-07-05T03:40:34.169Z,1016.07
2017-07-05T03:41:34.203Z,1016.08
2017-07-05T03:42:34.236Z,1016.07
2017-07-05T03:43:34.299Z,1016.04
2017-07-05T03:44:34.328Z,1016.09
2017-07-05T03:45:34.338Z,1016.13
2017-07-05T03:46:34.395Z,1016.1
2017-07-05T03:47:34.428Z,1016.07
2017-07-05T03:48:34.462Z,1016.04
2017-07-05T03:49:34.496Z,1016.08
2017-07-05T03:50:34.528Z,1016.08
2017-07-05T03:51:34.563Z,1016.06
2017-07-05T03:52:34.595Z,1016.02
2017-07-05T03:53:34.605Z,1015.99
2017-07-05T03:54:34.637Z,1016.02
2017-07-05T03:55:34.692Z,1016.02
2017-07-05T03:56:34.706Z,1016.02
2017-07-05T03:57:34.737Z,1015.99
2017-07-05T03:58:34.799Z,1015.96
2017-07-05T03:59:34.805Z,1015.98
2017-07-05T04:00:34.848Z,1015.98
2017-07-05T04:01:34.887Z,1016.01
2017-07-05T04:02:34.916Z,1016.05
2017-07-05T04:03:34.949Z,1015.97
2017-07-05T04:04:34.985Z,1015.96
2017-07-05T04:05:35.014Z,1015.95
2017-07-05T04:06:35.050Z,1015.92
2017-07-05T04:07:35.081Z,1015.97
2017-07-05T04:08:35.119Z,1015.94
2017-07-05T04:09:35.149Z,1015.92
2017-07-05T04:10:35.200Z,1015.96
2017-07-05T04:11:35.218Z,1015.94
2017-07-05T04:12:35.252Z,1015.91
2017-07-05T04:13:35.283Z,1015.9
2017-07-05T04:14:35.319Z,1015.89
2017-07-05T04:15:35.348Z,1015.87
2017-07-05T04:16:35.385Z,1015.84
2017-07-05T04:17:35.416Z,1015.85
2017-07-05T04:18:35.452Z,1015.89
2017-07-05T04:19:35.489Z,1015.9
2017-07-05T04:20:35.516Z,1015.95
2017-07-05T04:21:35.551Z,1015.94
2017-07-05T04:22:35.586Z,1015.95
2017-07-05T04:23:35.618Z,1015.93
2017-07-05T04:24:35.652Z,1015.89
2017-07-05T04:25:35.764Z,1015.9
2017-07-05T04:26:35.817Z,1015.93
2017-07-05T04:27:35.804Z,1015.9
2017-07-05T04:28:35.847Z,1015.88
2017-07-05T04:29:35.821Z,1015.89
2017-07-05T04:30:35.855Z,1015.93
2017-07-05T04:31:35.888Z,1015.92
2017-07-05T04:32:35.912Z,1015.93
2017-07-05T04:33:35.955Z,1015.92
2017-07-05T04:34:35.974Z,1015.92
2017-07-05T04:35:36.040Z,1015.93
2017-07-05T04:36:36.057Z,1015.92
2017-07-05T04:37:36.092Z,1015.93
2017-07-05T04:38:36.123Z,1015.98
2017-07-05T04:39:36.203Z,1015.94
2017-07-05T04:40:36.193Z,1015.97
2017-07-05T04:41:36.225Z,1016.01
2017-07-05T04:42:36.265Z,1016.02
2017-07-05T04:43:36.351Z,1016.03
2017-07-05T04:44:36.326Z,1016.06
2017-07-05T04:45:36.345Z,1016.12
2017-07-05T04:46:36.396Z,1016.2
2017-07-05T04:47:36.427Z,1016.15
2017-07-05T04:48:36.463Z,1016.14
2017-07-05T04:49:36.494Z,1016.09
2017-07-05T04:50:36.529Z,1016.13
2017-07-05T04:51:36.563Z,1016.11
2017-07-05T04:52:36.597Z,1016.13
2017-07-05T04:53:36.626Z,1016.09
2017-07-05T04:54:36.666Z,1016.1
2017-07-05T04:55:36.698Z,1016.15
2017-07-05T04:56:36.728Z,1016.16
2017-07-05T04:57:36.763Z,1016.12
2017-07-05T04:58:36.798Z,1016.1
2017-07-05T04:59:36.830Z,1016.09
2017-07-05T05:00:36.864Z,1016.09
2017-07-05T05:01:36.897Z,1016.09
2017-07-05T05:02:36.935Z,1016.09
2017-07-05T05:03:36.970Z,1016.14
2017-07-05T05:04:36.996Z,1016.12
2017-07-05T05:05:37.021Z,1016.11
2017-07-05T05:06:37.066Z,1016.18
2017-07-05T05:07:37.101Z,1016.2
2017-07-05T05:08:37.132Z,1016.24
2017-07-05T05:09:37.170Z,1016.26
2017-07-05T05:10:37.199Z,1016.28
2017-07-05T05:11:37.235Z,1016.26
2017-07-05T05:12:37.328Z,1016.25
2017-07-05T05:13:37.304Z,1016.3
2017-07-05T05:14:37.323Z,1016.29
2017-07-05T05:15:37.371Z,1016.29
2017-07-05T05:16:37.398Z,1016.28
2017-07-05T05:17:37.440Z,1016.3
2017-07-05T05:18:37.471Z,1016.31
2017-07-05T05:19:37.494Z,1016.32
2017-07-05T05:20:37.542Z,1016.34
2017-07-05T05:21:37.565Z,1016.33
2017-07-05T05:22:37.587Z,1016.32
2017-07-05T05:23:37.638Z,1016.26
2017-07-05T05:24:37.681Z,1016.29
2017-07-05T05:25:37.694Z,1016.35
2017-07-05T05:26:37.736Z,1016.29
2017-07-05T05:27:37.777Z,1016.38
2017-07-05T05:28:37.815Z,1016.36
2017-07-05T05:29:37.844Z,1016.37
2017-07-05T05:30:37.879Z,1016.41
2017-07-05T05:31:37.915Z,1016.44
2017-07-05T05:32:37.949Z,1016.45
2017-07-05T05:33:37.985Z,1016.42
2017-07-05T05:34:38.019Z,1016.46
2017-07-05T05:35:38.048Z,1016.42
2017-07-05T05:36:38.085Z,1016.4
2017-07-05T05:37:38.117Z,1016.35
2017-07-05T05:38:38.152Z,1016.42
2017-07-05T05:39:38.190Z,1016.41
2017-07-05T05:40:38.217Z,1016.48
2017-07-05T05:41:38.249Z,1016.53
2017-07-05T05:42:38.288Z,1016.47
2017-07-05T05:43:38.319Z,1016.47
2017-07-05T05:44:38.356Z,1016.49
2017-07-05T05:45:38.387Z,1016.48
2017-07-05T05:46:38.421Z,1016.5
2017-07-05T05:47:38.458Z,1016.49
2017-07-05T05:48:38.489Z,1016.49
2017-07-05T05:49:38.523Z,1016.5
2017-07-05T05:50:38.555Z,1016.52
2017-07-05T05:51:38.591Z,1016.52
2017-07-05T05:52:38.626Z,1016.5
2017-07-05T05:53:38.647Z,1016.55
2017-07-05T05:54:38.693Z,1016.54
2017-07-05T05:55:38.727Z,1016.53
2017-07-05T05:56:38.760Z,1016.57
2017-07-05T05:57:38.796Z,1016.61
2017-07-05T05:58:38.833Z,1016.6
2017-07-05T05:59:38.865Z,1016.63
2017-07-05T06:00:38.898Z,1016.65
2017-07-05T06:01:38.934Z,1016.61
2017-07-05T06:02:38.959Z,1016.67
2017-07-05T06:03:38.997Z,1016.7
2017-07-05T06:04:39.033Z,1016.69
2017-07-05T06:05:39.060Z,1016.74
2017-07-05T06:06:39.089Z,1016.74
2017-07-05T06:07:39.138Z,1016.66
2017-07-05T06:08:39.167Z,1016.69
2017-07-05T06:09:39.196Z,1016.74
2017-07-05T06:10:39.291Z,1016.72
2017-07-05T06:11:39.276Z,1016.72
2017-07-05T06:12:39.304Z,1016.67
2017-07-05T06:13:39.326Z,1016.61
2017-07-05T06:14:39.373Z,1016.61
2017-07-05T06:15:39.383Z,1016.58
2017-07-05T06:16:39.444Z,1016.62
2017-07-05T06:17:39.461Z,1016.62
2017-07-05T06:18:39.504Z,1016.63
2017-07-05T06:19:39.538Z,1016.68
2017-07-05T06:20:39.576Z,1016.67
2017-07-05T06:21:39.607Z,1016.73
2017-07-05T06:22:39.640Z,1016.75
2017-07-05T06:23:39.673Z,1016.74
2017-07-05T06:24:39.779Z,1016.79
2017-07-05T06:25:39.753Z,1016.78
2017-07-05T06:26:39.790Z,1016.73
2017-07-05T06:27:39.799Z,1016.81
2017-07-05T06:28:39.842Z,1016.82
2017-07-05T06:29:39.881Z,1016.85
2017-07-05T06:30:39.913Z,1016.86
2017-07-05T06:31:39.946Z,1016.81
2017-07-05T06:32:39.975Z,1016.82
2017-07-05T06:33:39.997Z,1016.82
2017-07-05T06:34:40.046Z,1016.78
2017-07-05T06:35:40.082Z,1016.8
2017-07-05T06:36:40.094Z,1016.82
2017-07-05T06:37:40.146Z,1016.8
2017-07-05T06:38:40.185Z,1016.81
2017-07-05T06:39:40.311Z,1016.83
2017-07-05T06:40:40.306Z,1016.86
2017-07-05T06:41:40.278Z,1016.84
2017-07-05T06:42:40.312Z,1016.86
2017-07-05T06:43:40.437Z,1016.87
2017-07-05T06:44:40.385Z,1016.95
2017-07-05T06:45:40.396Z,1016.94
2017-07-05T06:46:40.430Z,1016.94
2017-07-05T06:47:40.484Z,1016.96
2017-07-05T06:48:40.516Z,1016.98
2017-07-05T06:49:40.561Z,1016.95
2017-07-05T06:50:40.585Z,1016.9
2017-07-05T06:51:40.606Z,1016.95
2017-07-05T06:52:40.652Z,1016.89
2017-07-05T06:53:40.690Z,1016.93
2017-07-05T06:54:40.745Z,1016.94
2017-07-05T06:55:40.757Z,1016.91
2017-07-05T06:56:40.792Z,1016.92
2017-07-05T06:57:40.814Z,1016.87
2017-07-05T06:58:40.862Z,1016.89
2017-07-05T06:59:40.893Z,1016.89
2017-07-05T07:00:40.923Z,1016.89
2017-07-05T07:01:41.043Z,1016.88
2017-07-05T07:02:41.006Z,1016.92
2017-07-05T07:03:41.024Z,1016.97
2017-07-05T07:04:41.065Z,1016.95
2017-07-05T07:05:41.406Z,1016.94
2017-07-05T07:06:41.137Z,1017
2017-07-05T07:07:41.164Z,1016.96
2017-07-05T07:08:41.200Z,1017.01
2017-07-05T07:09:41.241Z,1017.02
2017-07-05T07:10:41.268Z,1016.98
2017-07-05T07:11:41.302Z,1017.01
2017-07-05T07:12:41.337Z,1016.9
2017-07-05T07:13:41.393Z,1016.91
2017-07-05T07:14:41.410Z,1016.93
2017-07-05T07:15:41.439Z,1016.93
2017-07-05T07:16:41.456Z,1016.9
2017-07-05T07:17:41.509Z,1016.91
2017-07-05T07:18:41.519Z,1016.91
2017-07-05T07:19:41.573Z,1016.92
2017-07-05T07:20:41.618Z,1016.89
2017-07-05T07:21:41.643Z,1016.9
2017-07-05T07:22:41.664Z,1016.95
2017-07-05T07:23:41.694Z,1016.94
2017-07-05T07:24:41.740Z,1016.91
2017-07-05T07:25:41.777Z,1016.9
2017-07-05T07:26:41.813Z,1016.89
2017-07-05T07:27:41.903Z,1016.91
2017-07-05T07:28:41.864Z,1016.94
2017-07-05T07:29:41.915Z,1016.94
2017-07-05T07:30:41.949Z,1016.89
2017-07-05T07:31:41.984Z,1016.89
2017-07-05T07:32:42.033Z,1016.92
2017-07-05T07:33:42.049Z,1016.91
2017-07-05T07:34:42.085Z,1016.9
2017-07-05T07:35:42.117Z,1016.91
2017-07-05T07:36:42.156Z,1016.92
2017-07-05T07:37:42.184Z,1016.97
2017-07-05T07:38:42.218Z,1016.96
2017-07-05T07:39:42.254Z,1016.94
2017-07-05T07:40:42.292Z,1017.01
2017-07-05T07:41:42.316Z,1016.96
2017-07-05T07:42:42.342Z,1016.99
2017-07-05T07:43:42.410Z,1016.96
2017-07-05T07:44:42.423Z,1017.01
2017-07-05T07:45:42.497Z,1016.99
2017-07-05T07:46:42.494Z,1016.95
2017-07-05T07:47:42.516Z,1016.99
2017-07-05T07:48:42.572Z,1016.98
2017-07-05T07:49:42.616Z,1016.96
2017-07-05T07:50:42.634Z,1016.98
2017-07-05T07:51:42.723Z,1016.96
2017-07-05T07:52:42.723Z,1016.96
2017-07-05T07:53:42.724Z,1016.9
2017-07-05T07:54:42.768Z,1016.89
2017-07-05T07:55:42.816Z,1016.87
2017-07-05T07:56:42.822Z,1016.88
2017-07-05T07:57:42.866Z,1016.89
2017-07-05T07:58:42.903Z,1016.86
2017-07-05T07:59:42.935Z,1016.89
2017-07-05T08:00:42.966Z,1016.86
2017-07-05T08:01:43.153Z,1016.88
2017-07-05T08:02:43.039Z,1016.93
2017-07-05T08:03:43.070Z,1016.91
2017-07-05T08:04:43.111Z,1016.92
2017-07-05T08:05:43.199Z,1016.89
2017-07-05T08:06:43.176Z,1016.9
2017-07-05T08:07:43.207Z,1016.85
2017-07-05T08:08:43.241Z,1016.88
2017-07-05T08:09:43.275Z,1016.86
2017-07-05T08:10:43.293Z,1016.84
2017-07-05T08:11:43.344Z,1016.84
2017-07-05T08:12:43.375Z,1016.81
2017-07-05T08:13:43.474Z,1016.81
2017-07-05T08:14:43.448Z,1016.88
2017-07-05T08:15:43.475Z,1016.86
2017-07-05T08:16:43.513Z,1016.82
2017-07-05T08:17:43.551Z,1016.83
2017-07-05T08:18:43.582Z,1016.79
2017-07-05T08:19:43.618Z,1016.81
2017-07-05T08:20:43.653Z,1016.8
2017-07-05T08:21:43.684Z,1016.79
2017-07-05T08:22:43.717Z,1016.82
2017-07-05T08:23:43.753Z,1016.76
2017-07-05T08:24:43.787Z,1016.79
2017-07-05T08:25:43.950Z,1016.8
2017-07-05T08:26:43.853Z,1016.77
2017-07-05T08:27:43.891Z,1016.8
2017-07-05T08:28:43.909Z,1016.74
2017-07-05T08:29:43.958Z,1016.74
2017-07-05T08:30:43.992Z,1016.8
2017-07-05T08:31:44.011Z,1016.8
2017-07-05T08:32:44.045Z,1016.76
2017-07-05T08:33:44.104Z,1016.79
2017-07-05T08:34:44.110Z,1016.71
2017-07-05T08:35:44.164Z,1016.71
2017-07-05T08:36:44.203Z,1016.71
2017-07-05T08:37:44.230Z,1016.75
2017-07-05T08:38:44.267Z,1016.74
2017-07-05T08:39:44.301Z,1016.73
2017-07-05T08:40:44.319Z,1016.82
2017-07-05T08:41:44.374Z,1016.84
2017-07-05T08:42:44.402Z,1016.83
2017-07-05T08:43:44.430Z,1016.83
2017-07-05T08:44:44.480Z,1016.86
2017-07-05T08:45:44.513Z,1016.83
2017-07-05T08:46:44.549Z,1016.85
2017-07-05T08:47:44.580Z,1016.86
2017-07-05T08:48:44.600Z,1016.86
2017-07-05T08:49:44.648Z,1016.89
2017-07-05T08:50:44.669Z,1016.9
2017-07-05T08:51:44.721Z,1016.91
2017-07-05T08:52:44.907Z,1016.91
2017-07-05T08:53:44.780Z,1016.99
2017-07-05T08:54:44.803Z,1017.05
2017-07-05T08:55:44.887Z,1017.16
2017-07-05T08:56:44.873Z,1017.2
2017-07-05T08:57:44.926Z,1017.59
2017-07-05T08:58:44.964Z,1017.28
2017-07-05T08:59:45.005Z,1017.37
2017-07-05T09:00:45.021Z,1017.23
2017-07-05T09:01:45.088Z,1017.1
2017-07-05T09:02:45.120Z,1017.06
2017-07-05T09:03:45.152Z,1017.19
2017-07-05T09:04:45.221Z,1017.27
2017-07-05T09:05:45.323Z,1017.14
2017-07-05T09:06:45.254Z,1017.16
2017-07-05T09:07:45.295Z,1017.16
2017-07-05T09:08:45.331Z,1017.1
2017-07-05T09:09:45.354Z,1017.04
2017-07-05T09:10:45.416Z,1017.05
2017-07-05T09:11:45.453Z,1017.07
2017-07-05T09:12:45.489Z,1017.06
2017-07-05T09:13:45.503Z,1017.04
2017-07-05T09:14:45.545Z,1017.06
2017-07-05T09:15:45.607Z,1017.08
2017-07-05T09:16:45.865Z,1017.06
2017-07-05T09:17:45.689Z,1017.09
2017-07-05T09:18:45.722Z,1017.06
2017-07-05T09:19:45.753Z,1017.11
2017-07-05T09:20:45.792Z,1017.09
2017-07-05T09:21:45.846Z,1017.06
2017-07-05T09:22:45.868Z,1017.04
2017-07-05T09:23:45.886Z,1017.09
2017-07-05T09:24:45.948Z,1017.1
2017-07-05T09:25:45.995Z,1017.11
2017-07-05T09:26:46.038Z,1017.15
2017-07-05T09:27:46.097Z,1017.18
2017-07-05T09:28:46.111Z,1017.27
2017-07-05T09:29:46.416Z,1017.47
2017-07-05T09:30:46.173Z,1017.21
2017-07-05T09:31:46.233Z,1017.13
2017-07-05T09:32:46.462Z,1017.1
2017-07-05T09:33:46.324Z,1017.13
2017-07-05T09:34:46.313Z,1017.24
2017-07-05T09:35:46.365Z,1017.22
2017-07-05T09:36:46.406Z,1017.28
2017-07-05T09:37:46.471Z,1017.18
2017-07-05T09:38:46.489Z,1017.22
2017-07-05T09:39:46.533Z,1017.17
2017-07-05T09:40:46.775Z,1017.19
2017-07-05T09:41:46.671Z,1017.17
2017-07-05T09:42:46.653Z,1017.37
2017-07-05T09:43:46.706Z,1017.12
2017-07-05T09:44:46.739Z,1017.01
2017-07-05T09:45:46.766Z,1017.01
2017-07-05T09:46:46.937Z,1017.03
2017-07-05T09:47:46.914Z,1017.05
2017-07-05T09:48:46.884Z,1017.11
2017-07-05T09:49:47.107Z,1017.1
2017-07-05T09:50:46.966Z,1017.07
2017-07-05T09:51:47.005Z,1017.09
2017-07-05T09:52:47.049Z,1017.07
2017-07-05T09:53:47.154Z,1017.16
2017-07-05T09:54:47.142Z,1017.11
2017-07-05T09:55:47.215Z,1017.07
2017-07-05T09:56:47.279Z,1017.09
2017-07-05T09:57:47.252Z,1017.09
2017-07-05T09:58:47.273Z,1017.07
2017-07-05T09:59:47.401Z,1017.05
2017-07-05T10:00:47.367Z,1017.11
2017-07-05T10:01:47.403Z,1017.17
2017-07-05T10:02:47.472Z,1017.24
2017-07-05T10:03:47.517Z,1018.16
2017-07-05T10:04:47.538Z,1017.96
2017-07-05T10:05:47.568Z,1017.06
2017-07-05T10:06:47.589Z,1017.65
2017-07-05T10:07:47.664Z,1017.47
2017-07-05T10:08:47.702Z,1016.95
2017-07-05T10:09:47.719Z,1016.89
2017-07-05T10:10:48.156Z,1016.9
2017-07-05T10:11:47.810Z,1017.89
2017-07-05T10:12:47.854Z,1018.03
2017-07-05T10:13:47.869Z,1018
2017-07-05T10:14:47.938Z,1017.08
2017-07-05T10:15:47.973Z,1017.16
2017-07-05T10:16:48.020Z,1016.88
2017-07-05T10:17:48.110Z,1016.92
2017-07-05T10:18:48.102Z,1017.25
2017-07-05T10:19:48.148Z,1018.23
2017-07-05T10:20:48.183Z,1017.4
2017-07-05T10:21:48.250Z,1018.33
2017-07-05T10:22:48.292Z,1018.35
2017-07-05T10:23:48.302Z,1017.77
2017-07-05T10:24:48.473Z,1016.86
2017-07-05T10:25:48.459Z,1016.84
2017-07-05T10:26:48.478Z,1016.8
2017-07-05T10:27:48.519Z,1017.7
2017-07-05T10:28:48.536Z,1018.36
2017-07-05T10:29:48.553Z,1018.33
2017-07-05T10:30:48.600Z,1018.34
2017-07-05T10:31:48.643Z,1018.34
2017-07-05T10:32:48.667Z,1017.8
2017-07-05T10:33:48.798Z,1017.14
2017-07-05T10:34:48.783Z,1017.53
2017-07-05T10:35:48.814Z,1017.87
2017-07-05T10:36:48.947Z,1017.03
2017-07-05T10:37:48.956Z,1016.99
2017-07-05T10:38:48.927Z,1017.28
2017-07-05T10:39:48.990Z,1018.35
2017-07-05T10:40:49.261Z,1017.27
2017-07-05T10:41:49.110Z,1017.4
2017-07-05T10:42:49.710Z,1017.16
2017-07-05T10:43:49.250Z,1017
2017-07-05T10:44:49.600Z,1017.28
2017-07-05T10:45:49.225Z,1017.34
2017-07-05T10:46:49.276Z,1017.41
2017-07-05T10:47:49.318Z,1016.91
2017-07-05T10:48:49.372Z,1016.87
2017-07-05T10:49:49.462Z,1017.33
2017-07-05T10:50:49.435Z,1017.77
2017-07-05T10:51:49.494Z,1016.76
2017-07-05T10:52:49.732Z,1018.07
2017-07-05T10:53:49.730Z,1016.98
2017-07-05T10:54:49.772Z,1017.84
2017-07-05T10:55:49.643Z,1017.15
2017-07-05T10:56:49.711Z,1016.9
2017-07-05T10:57:50.127Z,1017.09
2017-07-05T10:58:49.802Z,1019.38
2017-07-05T10:59:49.813Z,1019.73
2017-07-05T11:00:49.862Z,1020.01
2017-07-05T11:01:49.893Z,1019.37
2017-07-05T11:02:49.939Z,1017.53
2017-07-05T11:03:50.018Z,1017.19
2017-07-05T11:04:50.085Z,1016.93
2017-07-05T11:05:50.131Z,1017
2017-07-05T11:06:50.131Z,1016.9
2017-07-05T11:07:50.144Z,1016.79
2017-07-05T11:08:50.200Z,1016.86
2017-07-05T11:09:50.218Z,1016.98
2017-07-05T11:10:50.251Z,1016.97
2017-07-05T11:11:50.541Z,1016.98
2017-07-05T11:12:50.416Z,1016.89
2017-07-05T11:13:50.439Z,1016.85
2017-07-05T11:14:50.483Z,1016.83
2017-07-05T11:15:50.445Z,1016.89
2017-07-05T11:16:50.490Z,1016.89
2017-07-05T11:17:50.546Z,1016.9
2017-07-05T11:18:50.585Z,1016.91
2017-07-05T11:19:50.815Z,1016.86
2017-07-05T11:20:50.665Z,1016.8
2017-07-05T11:21:50.734Z,1016.72
2017-07-05T11:22:50.764Z,1016.74
2017-07-05T11:23:50.805Z,1016.68
2017-07-05T11:24:51.057Z,1016.67
2017-07-05T11:25:50.919Z,1016.64
2017-07-05T11:26:50.925Z,1016.63
2017-07-05T11:27:50.966Z,1016.65
2017-07-05T11:28:50.994Z,1016.64
2017-07-05T11:29:51.031Z,1016.63
2017-07-05T11:30:51.061Z,1016.64
2017-07-05T11:31:51.147Z,1016.61
2017-07-05T11:32:51.147Z,1016.6
2017-07-05T11:33:51.181Z,1016.62
2017-07-05T11:34:51.302Z,1016.57
2017-07-05T11:35:51.734Z,1016.54
2017-07-05T11:36:51.326Z,1016.55
2017-07-05T11:37:51.617Z,1016.47
2017-07-05T11:38:51.388Z,1016.52
2017-07-05T11:39:51.434Z,1016.55
2017-07-05T11:40:51.669Z,1016.5
2017-07-05T11:41:51.502Z,1016.55
2017-07-05T11:42:51.533Z,1016.62
2017-07-05T11:43:51.589Z,1016.64
2017-07-05T11:44:51.816Z,1016.66
2017-07-05T11:45:51.665Z,1016.54
2017-07-05T11:46:51.719Z,1016.59
2017-07-05T11:47:51.783Z,1016.49
2017-07-05T11:48:51.783Z,1016.48
2017-07-05T11:49:52.100Z,1016.46
2017-07-05T11:50:51.851Z,1016.43
2017-07-05T11:51:51.914Z,1016.45
2017-07-05T11:52:52.148Z,1016.48
2017-07-05T11:53:51.981Z,1016.47
2017-07-05T11:54:52.210Z,1016.42
2017-07-05T11:55:52.056Z,1016.47
2017-07-05T11:56:52.132Z,1016.5
2017-07-05T11:57:52.208Z,1016.6
2017-07-05T11:58:52.169Z,1016.55
2017-07-05T11:59:52.211Z,1016.58
2017-07-05T12:00:52.240Z,1016.59
2017-07-05T12:01:52.360Z,1016.53
2017-07-05T12:02:52.325Z,1016.48
2017-07-05T12:03:52.430Z,1016.48
2017-07-05T12:04:52.434Z,1016.51
2017-07-05T12:05:52.468Z,1016.55
2017-07-05T12:06:52.489Z,1016.53
2017-07-05T12:07:52.539Z,1016.53
2017-07-05T12:08:52.754Z,1016.53